sensor_id;sensor_type;location;lat;lon;timestamp;P1;durP1;ratioP1;P2;durP2;ratioP2
19137;SDS011;68178;52.188;5.598;2023-08-01T00:00:30;8.70;;;5.72;;
19137;SDS011;68178;52.188;5.598;2023-08-01T00:02:56;7.28;;;5.60;;
19137;SDS011;68178;52.188;5.598;2023-08-01T00:05:22;9.40;;;5.95;;
19137;SDS011;68178;52.188;5.598;2023-08-01T00:07:48;6.85;;;5.65;;
19137;SDS011;68178;52.188;5.598;2023-08-01T00:10:13;9.93;;;6.07;;
19137;SDS011;68178;52.188;5.598;2023-08-01T00:12:41;9.20;;;6.60;;
19137;SDS011;68178;52.188;5.598;2023-08-01T00:15:07;8.70;;;6.28;;
19137;SDS011;68178;52.188;5.598;2023-08-01T00:17:33;10.85;;;7.38;;
19137;SDS011;68178;52.188;5.598;2023-08-01T00:19:59;8.77;;;7.00;;
19137;SDS011;68178;52.188;5.598;2023-08-01T00:22:26;8.90;;;7.70;;
19137;SDS011;68178;52.188;5.598;2023-08-01T00:24:51;11.73;;;6.80;;
19137;SDS011;68178;52.188;5.598;2023-08-01T00:27:17;8.77;;;7.55;;
19137;SDS011;68178;52.188;5.598;2023-08-01T00:29:42;9.68;;;7.05;;
19137;SDS011;68178;52.188;5.598;2023-08-01T00:32:08;9.00;;;6.20;;
19137;SDS011;68178;52.188;5.598;2023-08-01T00:34:34;10.30;;;6.20;;
19137;SDS011;68178;52.188;5.598;2023-08-01T00:36:59;9.32;;;6.82;;
19137;SDS011;68178;52.188;5.598;2023-08-01T00:39:25;10.82;;;6.40;;
19137;SDS011;68178;52.188;5.598;2023-08-01T00:41:50;10.05;;;6.25;;
19137;SDS011;68178;52.188;5.598;2023-08-01T00:44:16;10.85;;;6.60;;
19137;SDS011;68178;52.188;5.598;2023-08-01T00:46:41;9.68;;;6.78;;
19137;SDS011;68178;52.188;5.598;2023-08-01T00:49:07;10.32;;;6.60;;
19137;SDS011;68178;52.188;5.598;2023-08-01T00:51:33;14.88;;;7.28;;
19137;SDS011;68178;52.188;5.598;2023-08-01T00:53:59;8.95;;;6.13;;
19137;SDS011;68178;52.188;5.598;2023-08-01T00:56:25;10.32;;;7.40;;
19137;SDS011;68178;52.188;5.598;2023-08-01T00:58:51;12.07;;;7.15;;
19137;SDS011;68178;52.188;5.598;2023-08-01T01:01:17;10.93;;;7.22;;
19137;SDS011;68178;52.188;5.598;2023-08-01T01:03:43;12.80;;;7.57;;
19137;SDS011;68178;52.188;5.598;2023-08-01T01:06:11;14.32;;;7.80;;
19137;SDS011;68178;52.188;5.598;2023-08-01T01:08:43;12.73;;;7.35;;
19137;SDS011;68178;52.188;5.598;2023-08-01T01:11:09;13.77;;;7.72;;
19137;SDS011;68178;52.188;5.598;2023-08-01T01:13:35;12.35;;;6.80;;
19137;SDS011;68178;52.188;5.598;2023-08-01T01:16:00;10.77;;;8.35;;
19137;SDS011;68178;52.188;5.598;2023-08-01T01:18:26;10.80;;;7.22;;
19137;SDS011;68178;52.188;5.598;2023-08-01T01:20:52;9.98;;;6.93;;
19137;SDS011;68178;52.188;5.598;2023-08-01T01:23:20;10.98;;;7.00;;
19137;SDS011;68178;52.188;5.598;2023-08-01T01:25:47;10.32;;;7.32;;
19137;SDS011;68178;52.188;5.598;2023-08-01T01:28:15;15.25;;;7.15;;
19137;SDS011;68178;52.188;5.598;2023-08-01T01:30:41;14.23;;;7.35;;
19137;SDS011;68178;52.188;5.598;2023-08-01T01:33:08;14.13;;;7.95;;
19137;SDS011;68178;52.188;5.598;2023-08-01T01:35:35;14.43;;;7.38;;
19137;SDS011;68178;52.188;5.598;2023-08-01T01:38:01;11.52;;;6.93;;
19137;SDS011;68178;52.188;5.598;2023-08-01T01:40:29;10.27;;;6.75;;
19137;SDS011;68178;52.188;5.598;2023-08-01T01:42:56;13.38;;;8.02;;
19137;SDS011;68178;52.188;5.598;2023-08-01T01:45:21;10.77;;;7.50;;
19137;SDS011;68178;52.188;5.598;2023-08-01T01:47:47;13.52;;;8.00;;
19137;SDS011;68178;52.188;5.598;2023-08-01T01:50:13;12.48;;;8.25;;
19137;SDS011;68178;52.188;5.598;2023-08-01T01:52:38;13.32;;;8.70;;
19137;SDS011;68178;52.188;5.598;2023-08-01T01:55:04;13.35;;;9.07;;
19137;SDS011;68178;52.188;5.598;2023-08-01T01:57:30;20.38;;;9.52;;
19137;SDS011;68178;52.188;5.598;2023-08-01T01:59:55;14.98;;;9.32;;
19137;SDS011;68178;52.188;5.598;2023-08-01T02:02:21;15.15;;;9.32;;
19137;SDS011;68178;52.188;5.598;2023-08-01T02:04:47;15.75;;;9.48;;
19137;SDS011;68178;52.188;5.598;2023-08-01T02:07:13;14.75;;;9.38;;
19137;SDS011;68178;52.188;5.598;2023-08-01T02:09:39;14.88;;;10.45;;
19137;SDS011;68178;52.188;5.598;2023-08-01T02:12:05;14.15;;;9.55;;
19137;SDS011;68178;52.188;5.598;2023-08-01T02:14:32;15.07;;;9.65;;
19137;SDS011;68178;52.188;5.598;2023-08-01T02:16:58;16.52;;;10.32;;
19137;SDS011;68178;52.188;5.598;2023-08-01T02:19:23;14.13;;;9.18;;
19137;SDS011;68178;52.188;5.598;2023-08-01T02:21:49;14.98;;;9.32;;
19137;SDS011;68178;52.188;5.598;2023-08-01T02:24:14;14.55;;;9.20;;
19137;SDS011;68178;52.188;5.598;2023-08-01T02:26:40;19.67;;;10.32;;
19137;SDS011;68178;52.188;5.598;2023-08-01T02:29:05;15.95;;;9.82;;
19137;SDS011;68178;52.188;5.598;2023-08-01T02:31:31;17.17;;;9.98;;
19137;SDS011;68178;52.188;5.598;2023-08-01T02:33:57;15.02;;;9.20;;
19137;SDS011;68178;52.188;5.598;2023-08-01T02:36:22;14.20;;;9.10;;
19137;SDS011;68178;52.188;5.598;2023-08-01T02:38:48;15.07;;;9.65;;
19137;SDS011;68178;52.188;5.598;2023-08-01T02:41:13;16.55;;;10.15;;
19137;SDS011;68178;52.188;5.598;2023-08-01T02:43:39;19.08;;;10.65;;
19137;SDS011;68178;52.188;5.598;2023-08-01T02:46:04;18.70;;;11.25;;
19137;SDS011;68178;52.188;5.598;2023-08-01T02:48:30;23.33;;;11.48;;
19137;SDS011;68178;52.188;5.598;2023-08-01T02:50:57;20.75;;;11.45;;
19137;SDS011;68178;52.188;5.598;2023-08-01T02:53:22;17.70;;;10.93;;
19137;SDS011;68178;52.188;5.598;2023-08-01T02:55:48;21.02;;;11.43;;
19137;SDS011;68178;52.188;5.598;2023-08-01T02:58:14;19.75;;;10.70;;
19137;SDS011;68178;52.188;5.598;2023-08-01T03:00:39;20.38;;;11.18;;
19137;SDS011;68178;52.188;5.598;2023-08-01T03:03:05;17.17;;;8.70;;
19137;SDS011;68178;52.188;5.598;2023-08-01T03:05:31;15.70;;;9.30;;
19137;SDS011;68178;52.188;5.598;2023-08-01T03:07:57;15.68;;;9.10;;
19137;SDS011;68178;52.188;5.598;2023-08-01T03:10:23;18.60;;;9.23;;
19137;SDS011;68178;52.188;5.598;2023-08-01T03:12:48;15.25;;;7.90;;
19137;SDS011;68178;52.188;5.598;2023-08-01T03:15:14;14.52;;;8.15;;
19137;SDS011;68178;52.188;5.598;2023-08-01T03:17:39;13.45;;;8.15;;
19137;SDS011;68178;52.188;5.598;2023-08-01T03:20:05;17.85;;;7.85;;
19137;SDS011;68178;52.188;5.598;2023-08-01T03:22:35;17.58;;;8.20;;
19137;SDS011;68178;52.188;5.598;2023-08-01T03:25:05;11.10;;;6.43;;
19137;SDS011;68178;52.188;5.598;2023-08-01T03:27:32;9.25;;;6.45;;
19137;SDS011;68178;52.188;5.598;2023-08-01T03:29:58;14.77;;;6.53;;
19137;SDS011;68178;52.188;5.598;2023-08-01T03:32:24;12.18;;;6.85;;
19137;SDS011;68178;52.188;5.598;2023-08-01T03:34:49;14.18;;;6.75;;
19137;SDS011;68178;52.188;5.598;2023-08-01T03:37:15;12.30;;;6.95;;
19137;SDS011;68178;52.188;5.598;2023-08-01T03:39:41;12.55;;;6.75;;
19137;SDS011;68178;52.188;5.598;2023-08-01T03:42:10;16.85;;;7.15;;
19137;SDS011;68178;52.188;5.598;2023-08-01T03:44:35;16.08;;;7.90;;
19137;SDS011;68178;52.188;5.598;2023-08-01T03:47:01;10.95;;;6.55;;
19137;SDS011;68178;52.188;5.598;2023-08-01T03:49:26;9.38;;;6.78;;
19137;SDS011;68178;52.188;5.598;2023-08-01T03:51:52;14.40;;;6.93;;
19137;SDS011;68178;52.188;5.598;2023-08-01T03:54:17;14.13;;;6.80;;
19137;SDS011;68178;52.188;5.598;2023-08-01T03:56:43;15.57;;;7.22;;
19137;SDS011;68178;52.188;5.598;2023-08-01T03:59:15;14.57;;;7.05;;
19137;SDS011;68178;52.188;5.598;2023-08-01T04:01:41;10.85;;;6.20;;
19137;SDS011;68178;52.188;5.598;2023-08-01T04:04:07;11.85;;;6.95;;
19137;SDS011;68178;52.188;5.598;2023-08-01T04:06:33;14.18;;;8.88;;
19137;SDS011;68178;52.188;5.598;2023-08-01T04:08:59;15.23;;;8.77;;
19137;SDS011;68178;52.188;5.598;2023-08-01T04:11:25;21.15;;;10.15;;
19137;SDS011;68178;52.188;5.598;2023-08-01T04:13:51;12.40;;;8.57;;
19137;SDS011;68178;52.188;5.598;2023-08-01T04:16:17;19.58;;;10.57;;
19137;SDS011;68178;52.188;5.598;2023-08-01T04:18:42;17.67;;;9.95;;
19137;SDS011;68178;52.188;5.598;2023-08-01T04:21:08;19.42;;;10.05;;
19137;SDS011;68178;52.188;5.598;2023-08-01T04:23:34;17.23;;;10.27;;
19137;SDS011;68178;52.188;5.598;2023-08-01T04:25:59;14.95;;;9.88;;
19137;SDS011;68178;52.188;5.598;2023-08-01T04:28:25;15.35;;;9.90;;
19137;SDS011;68178;52.188;5.598;2023-08-01T04:30:51;19.25;;;9.90;;
19137;SDS011;68178;52.188;5.598;2023-08-01T04:33:17;19.58;;;10.15;;
19137;SDS011;68178;52.188;5.598;2023-08-01T04:35:43;19.17;;;10.77;;
19137;SDS011;68178;52.188;5.598;2023-08-01T04:38:09;15.88;;;9.35;;
19137;SDS011;68178;52.188;5.598;2023-08-01T04:40:35;15.00;;;9.02;;
19137;SDS011;68178;52.188;5.598;2023-08-01T04:43:01;19.98;;;9.18;;
19137;SDS011;68178;52.188;5.598;2023-08-01T04:45:27;13.85;;;9.43;;
19137;SDS011;68178;52.188;5.598;2023-08-01T04:47:53;16.95;;;9.95;;
19137;SDS011;68178;52.188;5.598;2023-08-01T04:50:19;19.55;;;8.82;;
19137;SDS011;68178;52.188;5.598;2023-08-01T04:52:45;16.77;;;8.80;;
19137;SDS011;68178;52.188;5.598;2023-08-01T04:55:10;15.43;;;9.00;;
19137;SDS011;68178;52.188;5.598;2023-08-01T04:57:36;13.18;;;8.90;;
19137;SDS011;68178;52.188;5.598;2023-08-01T05:00:02;20.15;;;10.27;;
19137;SDS011;68178;52.188;5.598;2023-08-01T05:02:28;17.23;;;9.27;;
19137;SDS011;68178;52.188;5.598;2023-08-01T05:04:54;19.17;;;9.88;;
19137;SDS011;68178;52.188;5.598;2023-08-01T05:07:20;19.10;;;9.82;;
19137;SDS011;68178;52.188;5.598;2023-08-01T05:09:45;18.17;;;9.48;;
19137;SDS011;68178;52.188;5.598;2023-08-01T05:12:11;15.07;;;10.15;;
19137;SDS011;68178;52.188;5.598;2023-08-01T05:14:36;21.52;;;10.25;;
19137;SDS011;68178;52.188;5.598;2023-08-01T05:17:02;22.08;;;10.88;;
19137;SDS011;68178;52.188;5.598;2023-08-01T05:19:28;19.27;;;10.23;;
19137;SDS011;68178;52.188;5.598;2023-08-01T05:21:54;26.83;;;11.32;;
19137;SDS011;68178;52.188;5.598;2023-08-01T05:24:20;23.83;;;11.27;;
19137;SDS011;68178;52.188;5.598;2023-08-01T05:26:46;24.33;;;11.77;;
19137;SDS011;68178;52.188;5.598;2023-08-01T05:29:12;27.05;;;10.85;;
19137;SDS011;68178;52.188;5.598;2023-08-01T05:31:37;24.02;;;10.85;;
19137;SDS011;68178;52.188;5.598;2023-08-01T05:34:03;19.40;;;9.60;;
19137;SDS011;68178;52.188;5.598;2023-08-01T05:36:28;15.27;;;9.82;;
19137;SDS011;68178;52.188;5.598;2023-08-01T05:38:54;18.95;;;9.60;;
19137;SDS011;68178;52.188;5.598;2023-08-01T05:41:19;18.25;;;9.77;;
19137;SDS011;68178;52.188;5.598;2023-08-01T05:43:46;18.48;;;8.88;;
19137;SDS011;68178;52.188;5.598;2023-08-01T05:46:13;13.05;;;8.68;;
19137;SDS011;68178;52.188;5.598;2023-08-01T05:48:38;19.25;;;9.38;;
19137;SDS011;68178;52.188;5.598;2023-08-01T05:51:04;23.60;;;9.73;;
19137;SDS011;68178;52.188;5.598;2023-08-01T05:53:30;28.25;;;10.95;;
19137;SDS011;68178;52.188;5.598;2023-08-01T05:55:55;16.80;;;8.45;;
19137;SDS011;68178;52.188;5.598;2023-08-01T05:58:21;17.75;;;8.82;;
19137;SDS011;68178;52.188;5.598;2023-08-01T06:00:46;19.38;;;9.20;;
19137;SDS011;68178;52.188;5.598;2023-08-01T06:03:12;19.13;;;8.80;;
19137;SDS011;68178;52.188;5.598;2023-08-01T06:05:38;20.25;;;9.18;;
19137;SDS011;68178;52.188;5.598;2023-08-01T06:08:05;16.25;;;9.00;;
19137;SDS011;68178;52.188;5.598;2023-08-01T06:10:31;19.13;;;8.63;;
19137;SDS011;68178;52.188;5.598;2023-08-01T06:12:57;24.83;;;9.70;;
19137;SDS011;68178;52.188;5.598;2023-08-01T06:15:22;20.45;;;8.88;;
19137;SDS011;68178;52.188;5.598;2023-08-01T06:17:48;16.60;;;9.05;;
19137;SDS011;68178;52.188;5.598;2023-08-01T06:20:13;19.77;;;7.60;;
19137;SDS011;68178;52.188;5.598;2023-08-01T06:22:39;14.98;;;7.35;;
19137;SDS011;68178;52.188;5.598;2023-08-01T06:25:06;14.95;;;6.80;;
19137;SDS011;68178;52.188;5.598;2023-08-01T06:27:31;14.75;;;6.93;;
19137;SDS011;68178;52.188;5.598;2023-08-01T06:29:57;15.60;;;6.50;;
19137;SDS011;68178;52.188;5.598;2023-08-01T06:32:25;14.02;;;6.70;;
19137;SDS011;68178;52.188;5.598;2023-08-01T06:34:51;16.33;;;7.75;;
19137;SDS011;68178;52.188;5.598;2023-08-01T06:37:17;17.30;;;6.53;;
19137;SDS011;68178;52.188;5.598;2023-08-01T06:39:42;15.57;;;6.70;;
19137;SDS011;68178;52.188;5.598;2023-08-01T06:42:08;13.05;;;6.25;;
19137;SDS011;68178;52.188;5.598;2023-08-01T06:44:33;14.15;;;5.97;;
19137;SDS011;68178;52.188;5.598;2023-08-01T06:46:59;17.02;;;6.60;;
19137;SDS011;68178;52.188;5.598;2023-08-01T06:49:25;14.05;;;5.18;;
19137;SDS011;68178;52.188;5.598;2023-08-01T06:51:53;18.65;;;5.72;;
19137;SDS011;68178;52.188;5.598;2023-08-01T06:54:19;13.88;;;5.88;;
19137;SDS011;68178;52.188;5.598;2023-08-01T06:56:44;11.98;;;5.22;;
19137;SDS011;68178;52.188;5.598;2023-08-01T06:59:13;12.05;;;6.00;;
19137;SDS011;68178;52.188;5.598;2023-08-01T07:01:40;15.63;;;5.85;;
19137;SDS011;68178;52.188;5.598;2023-08-01T07:04:08;10.40;;;5.40;;
19137;SDS011;68178;52.188;5.598;2023-08-01T07:06:36;12.75;;;5.53;;
19137;SDS011;68178;52.188;5.598;2023-08-01T07:09:02;15.63;;;5.38;;
19137;SDS011;68178;52.188;5.598;2023-08-01T07:11:28;12.13;;;5.20;;
19137;SDS011;68178;52.188;5.598;2023-08-01T07:13:53;14.88;;;5.80;;
19137;SDS011;68178;52.188;5.598;2023-08-01T07:16:19;10.57;;;4.68;;
19137;SDS011;68178;52.188;5.598;2023-08-01T07:18:44;14.13;;;5.38;;
19137;SDS011;68178;52.188;5.598;2023-08-01T07:21:10;12.35;;;4.38;;
19137;SDS011;68178;52.188;5.598;2023-08-01T07:23:36;7.55;;;4.25;;
19137;SDS011;68178;52.188;5.598;2023-08-01T07:26:01;12.32;;;4.47;;
19137;SDS011;68178;52.188;5.598;2023-08-01T07:28:27;12.27;;;4.40;;
19137;SDS011;68178;52.188;5.598;2023-08-01T07:30:59;10.25;;;4.05;;
19137;SDS011;68178;52.188;5.598;2023-08-01T07:33:26;10.50;;;3.95;;
19137;SDS011;68178;52.188;5.598;2023-08-01T07:35:51;10.80;;;3.85;;
19137;SDS011;68178;52.188;5.598;2023-08-01T07:38:17;10.38;;;3.72;;
19137;SDS011;68178;52.188;5.598;2023-08-01T07:40:43;8.68;;;4.10;;
19137;SDS011;68178;52.188;5.598;2023-08-01T07:43:08;10.30;;;4.63;;
19137;SDS011;68178;52.188;5.598;2023-08-01T07:45:34;9.13;;;3.97;;
19137;SDS011;68178;52.188;5.598;2023-08-01T07:48:00;8.13;;;4.18;;
19137;SDS011;68178;52.188;5.598;2023-08-01T07:50:26;12.43;;;4.07;;
19137;SDS011;68178;52.188;5.598;2023-08-01T07:52:51;14.15;;;4.68;;
19137;SDS011;68178;52.188;5.598;2023-08-01T07:55:17;7.55;;;3.17;;
19137;SDS011;68178;52.188;5.598;2023-08-01T07:57:43;9.57;;;3.67;;
19137;SDS011;68178;52.188;5.598;2023-08-01T08:00:09;7.88;;;3.63;;
19137;SDS011;68178;52.188;5.598;2023-08-01T08:02:36;13.00;;;3.90;;
19137;SDS011;68178;52.188;5.598;2023-08-01T08:05:01;12.63;;;4.00;;
19137;SDS011;68178;52.188;5.598;2023-08-01T08:07:27;9.88;;;3.95;;
19137;SDS011;68178;52.188;5.598;2023-08-01T08:09:52;13.32;;;4.68;;
19137;SDS011;68178;52.188;5.598;2023-08-01T08:12:20;10.52;;;4.32;;
19137;SDS011;68178;52.188;5.598;2023-08-01T08:14:46;6.78;;;3.92;;
19137;SDS011;68178;52.188;5.598;2023-08-01T08:17:12;11.07;;;3.65;;
19137;SDS011;68178;52.188;5.598;2023-08-01T08:19:38;8.65;;;3.70;;
19137;SDS011;68178;52.188;5.598;2023-08-01T08:22:03;11.00;;;3.60;;
19137;SDS011;68178;52.188;5.598;2023-08-01T08:24:29;13.98;;;4.68;;
19137;SDS011;68178;52.188;5.598;2023-08-01T08:26:55;10.75;;;4.82;;
19137;SDS011;68178;52.188;5.598;2023-08-01T08:29:20;11.98;;;5.00;;
19137;SDS011;68178;52.188;5.598;2023-08-01T08:31:46;13.48;;;4.90;;
19137;SDS011;68178;52.188;5.598;2023-08-01T08:34:12;11.48;;;5.00;;
19137;SDS011;68178;52.188;5.598;2023-08-01T08:36:38;10.65;;;4.70;;
19137;SDS011;68178;52.188;5.598;2023-08-01T08:39:03;10.52;;;4.60;;
19137;SDS011;68178;52.188;5.598;2023-08-01T08:41:29;9.10;;;4.20;;
19137;SDS011;68178;52.188;5.598;2023-08-01T08:44:02;10.13;;;4.57;;
19137;SDS011;68178;52.188;5.598;2023-08-01T08:46:32;13.15;;;5.40;;
19137;SDS011;68178;52.188;5.598;2023-08-01T08:49:04;15.10;;;6.72;;
19137;SDS011;68178;52.188;5.598;2023-08-01T08:51:30;10.13;;;5.57;;
19137;SDS011;68178;52.188;5.598;2023-08-01T08:53:56;7.43;;;5.47;;
19137;SDS011;68178;52.188;5.598;2023-08-01T08:56:23;9.15;;;4.72;;
19137;SDS011;68178;52.188;5.598;2023-08-01T08:58:48;7.70;;;4.55;;
19137;SDS011;68178;52.188;5.598;2023-08-01T09:01:14;7.97;;;4.45;;
19137;SDS011;68178;52.188;5.598;2023-08-01T09:03:42;7.18;;;3.42;;
19137;SDS011;68178;52.188;5.598;2023-08-01T09:06:10;11.02;;;3.95;;
19137;SDS011;68178;52.188;5.598;2023-08-01T09:08:39;7.88;;;3.53;;
19137;SDS011;68178;52.188;5.598;2023-08-01T09:11:09;7.90;;;3.67;;
19137;SDS011;68178;52.188;5.598;2023-08-01T09:13:34;10.23;;;3.63;;
19137;SDS011;68178;52.188;5.598;2023-08-01T09:16:01;7.80;;;2.95;;
19137;SDS011;68178;52.188;5.598;2023-08-01T09:18:27;7.47;;;3.35;;
19137;SDS011;68178;52.188;5.598;2023-08-01T09:20:53;7.63;;;2.40;;
19137;SDS011;68178;52.188;5.598;2023-08-01T09:23:18;6.13;;;2.03;;
19137;SDS011;68178;52.188;5.598;2023-08-01T09:25:44;6.88;;;2.63;;
19137;SDS011;68178;52.188;5.598;2023-08-01T09:28:17;6.97;;;2.78;;
19137;SDS011;68178;52.188;5.598;2023-08-01T09:30:50;4.95;;;2.20;;
19137;SDS011;68178;52.188;5.598;2023-08-01T09:33:20;11.57;;;3.58;;
19137;SDS011;68178;52.188;5.598;2023-08-01T09:35:48;5.32;;;2.30;;
19137;SDS011;68178;52.188;5.598;2023-08-01T09:38:15;8.50;;;3.03;;
19137;SDS011;68178;52.188;5.598;2023-08-01T09:40:42;5.15;;;2.70;;
19137;SDS011;68178;52.188;5.598;2023-08-01T09:43:09;5.43;;;2.47;;
19137;SDS011;68178;52.188;5.598;2023-08-01T09:45:48;7.57;;;2.17;;
19137;SDS011;68178;52.188;5.598;2023-08-01T09:48:27;7.53;;;2.58;;
19137;SDS011;68178;52.188;5.598;2023-08-01T09:53:37;3.63;;;1.80;;
19137;SDS011;68178;52.188;5.598;2023-08-01T09:56:14;6.07;;;2.30;;
19137;SDS011;68178;52.188;5.598;2023-08-01T09:58:43;5.72;;;2.35;;
19137;SDS011;68178;52.188;5.598;2023-08-01T10:01:10;7.57;;;3.00;;
19137;SDS011;68178;52.188;5.598;2023-08-01T10:03:37;9.02;;;2.58;;
19137;SDS011;68178;52.188;5.598;2023-08-01T10:06:05;5.97;;;2.67;;
19137;SDS011;68178;52.188;5.598;2023-08-01T10:08:31;7.95;;;2.58;;
19137;SDS011;68178;52.188;5.598;2023-08-01T10:10:58;10.98;;;2.60;;
19137;SDS011;68178;52.188;5.598;2023-08-01T10:13:25;7.45;;;2.03;;
19137;SDS011;68178;52.188;5.598;2023-08-01T10:15:53;7.55;;;2.47;;
19137;SDS011;68178;52.188;5.598;2023-08-01T10:18:19;7.75;;;3.20;;
19137;SDS011;68178;52.188;5.598;2023-08-01T10:20:46;7.63;;;2.80;;
19137;SDS011;68178;52.188;5.598;2023-08-01T10:23:12;8.00;;;2.22;;
19137;SDS011;68178;52.188;5.598;2023-08-01T10:25:38;7.20;;;2.45;;
19137;SDS011;68178;52.188;5.598;2023-08-01T10:28:05;7.38;;;2.33;;
19137;SDS011;68178;52.188;5.598;2023-08-01T10:30:31;8.85;;;2.67;;
19137;SDS011;68178;52.188;5.598;2023-08-01T10:32:57;6.75;;;2.42;;
19137;SDS011;68178;52.188;5.598;2023-08-01T10:35:33;5.07;;;2.03;;
19137;SDS011;68178;52.188;5.598;2023-08-01T10:38:03;9.93;;;2.47;;
19137;SDS011;68178;52.188;5.598;2023-08-01T10:40:39;5.90;;;2.13;;
19137;SDS011;68178;52.188;5.598;2023-08-01T10:43:20;4.85;;;2.22;;
19137;SDS011;68178;52.188;5.598;2023-08-01T10:45:47;5.85;;;2.10;;
19137;SDS011;68178;52.188;5.598;2023-08-01T10:48:13;5.25;;;1.88;;
19137;SDS011;68178;52.188;5.598;2023-08-01T10:50:39;6.50;;;1.70;;
19137;SDS011;68178;52.188;5.598;2023-08-01T10:53:05;4.63;;;1.80;;
19137;SDS011;68178;52.188;5.598;2023-08-01T10:55:43;5.22;;;1.98;;
19137;SDS011;68178;52.188;5.598;2023-08-01T10:58:10;5.18;;;1.77;;
19137;SDS011;68178;52.188;5.598;2023-08-01T11:00:36;5.38;;;1.83;;
19137;SDS011;68178;52.188;5.598;2023-08-01T11:03:02;3.97;;;1.90;;
19137;SDS011;68178;52.188;5.598;2023-08-01T11:05:27;5.70;;;1.83;;
19137;SDS011;68178;52.188;5.598;2023-08-01T11:07:58;4.50;;;1.75;;
19137;SDS011;68178;52.188;5.598;2023-08-01T11:10:25;5.05;;;2.00;;
19137;SDS011;68178;52.188;5.598;2023-08-01T11:12:52;4.47;;;1.65;;
19137;SDS011;68178;52.188;5.598;2023-08-01T11:15:18;5.15;;;1.98;;
19137;SDS011;68178;52.188;5.598;2023-08-01T11:17:51;2.45;;;1.70;;
19137;SDS011;68178;52.188;5.598;2023-08-01T11:20:19;6.45;;;2.38;;
19137;SDS011;68178;52.188;5.598;2023-08-01T11:22:53;4.13;;;1.98;;
19137;SDS011;68178;52.188;5.598;2023-08-01T11:25:36;6.22;;;1.90;;
19137;SDS011;68178;52.188;5.598;2023-08-01T11:28:09;6.53;;;1.73;;
19137;SDS011;68178;52.188;5.598;2023-08-01T11:30:36;5.13;;;2.15;;
19137;SDS011;68178;52.188;5.598;2023-08-01T11:33:02;6.32;;;1.90;;
19137;SDS011;68178;52.188;5.598;2023-08-01T11:35:51;6.35;;;2.13;;
19137;SDS011;68178;52.188;5.598;2023-08-01T11:38:25;5.28;;;1.70;;
19137;SDS011;68178;52.188;5.598;2023-08-01T11:40:54;7.43;;;2.70;;
19137;SDS011;68178;52.188;5.598;2023-08-01T11:43:22;5.47;;;1.67;;
19137;SDS011;68178;52.188;5.598;2023-08-01T11:45:51;5.63;;;1.88;;
19137;SDS011;68178;52.188;5.598;2023-08-01T11:48:19;4.20;;;1.70;;
19137;SDS011;68178;52.188;5.598;2023-08-01T11:50:47;3.30;;;2.13;;
19137;SDS011;68178;52.188;5.598;2023-08-01T11:53:22;4.95;;;1.98;;
19137;SDS011;68178;52.188;5.598;2023-08-01T11:55:48;7.32;;;2.75;;
19137;SDS011;68178;52.188;5.598;2023-08-01T11:58:14;7.97;;;2.40;;
19137;SDS011;68178;52.188;5.598;2023-08-01T12:00:40;6.70;;;1.70;;
19137;SDS011;68178;52.188;5.598;2023-08-01T12:03:09;3.92;;;1.50;;
19137;SDS011;68178;52.188;5.598;2023-08-01T12:05:41;5.57;;;1.73;;
19137;SDS011;68178;52.188;5.598;2023-08-01T12:08:13;7.55;;;2.05;;
19137;SDS011;68178;52.188;5.598;2023-08-01T12:13:06;4.97;;;2.15;;
19137;SDS011;68178;52.188;5.598;2023-08-01T12:15:31;3.90;;;1.80;;
19137;SDS011;68178;52.188;5.598;2023-08-01T12:17:57;3.80;;;2.35;;
19137;SDS011;68178;52.188;5.598;2023-08-01T12:20:23;4.97;;;1.80;;
19137;SDS011;68178;52.188;5.598;2023-08-01T12:22:48;3.97;;;1.88;;
19137;SDS011;68178;52.188;5.598;2023-08-01T12:25:14;7.82;;;1.95;;
19137;SDS011;68178;52.188;5.598;2023-08-01T12:27:39;6.45;;;2.28;;
19137;SDS011;68178;52.188;5.598;2023-08-01T12:30:05;8.68;;;2.67;;
19137;SDS011;68178;52.188;5.598;2023-08-01T12:32:31;6.57;;;2.35;;
19137;SDS011;68178;52.188;5.598;2023-08-01T12:34:57;10.02;;;2.13;;
19137;SDS011;68178;52.188;5.598;2023-08-01T12:37:22;6.80;;;2.13;;
19137;SDS011;68178;52.188;5.598;2023-08-01T12:39:48;6.80;;;1.85;;
19137;SDS011;68178;52.188;5.598;2023-08-01T12:42:14;6.82;;;2.20;;
19137;SDS011;68178;52.188;5.598;2023-08-01T12:44:40;6.35;;;2.42;;
19137;SDS011;68178;52.188;5.598;2023-08-01T12:47:06;9.55;;;2.95;;
19137;SDS011;68178;52.188;5.598;2023-08-01T12:49:33;5.88;;;2.00;;
19137;SDS011;68178;52.188;5.598;2023-08-01T12:51:58;6.93;;;2.28;;
19137;SDS011;68178;52.188;5.598;2023-08-01T12:54:24;6.15;;;2.15;;
19137;SDS011;68178;52.188;5.598;2023-08-01T12:56:49;7.88;;;2.00;;
19137;SDS011;68178;52.188;5.598;2023-08-01T12:59:15;7.07;;;2.42;;
19137;SDS011;68178;52.188;5.598;2023-08-01T13:01:41;5.97;;;1.83;;
19137;SDS011;68178;52.188;5.598;2023-08-01T13:04:06;5.75;;;1.55;;
19137;SDS011;68178;52.188;5.598;2023-08-01T13:06:32;5.43;;;1.73;;
19137;SDS011;68178;52.188;5.598;2023-08-01T13:08:57;4.38;;;1.63;;
19137;SDS011;68178;52.188;5.598;2023-08-01T13:11:23;8.23;;;2.22;;
19137;SDS011;68178;52.188;5.598;2023-08-01T13:13:49;5.50;;;1.60;;
19137;SDS011;68178;52.188;5.598;2023-08-01T13:16:14;5.85;;;1.50;;
19137;SDS011;68178;52.188;5.598;2023-08-01T13:18:40;4.82;;;1.45;;
19137;SDS011;68178;52.188;5.598;2023-08-01T13:21:08;4.78;;;1.60;;
19137;SDS011;68178;52.188;5.598;2023-08-01T13:23:35;3.08;;;1.45;;
19137;SDS011;68178;52.188;5.598;2023-08-01T13:26:01;4.55;;;1.88;;
19137;SDS011;68178;52.188;5.598;2023-08-01T13:28:27;6.38;;;2.10;;
19137;SDS011;68178;52.188;5.598;2023-08-01T13:30:53;7.32;;;2.58;;
19137;SDS011;68178;52.188;5.598;2023-08-01T13:33:18;5.10;;;2.20;;
19137;SDS011;68178;52.188;5.598;2023-08-01T13:35:44;7.13;;;2.58;;
19137;SDS011;68178;52.188;5.598;2023-08-01T13:38:09;7.22;;;2.60;;
19137;SDS011;68178;52.188;5.598;2023-08-01T13:40:35;7.63;;;2.53;;
19137;SDS011;68178;52.188;5.598;2023-08-01T13:43:01;9.40;;;2.45;;
19137;SDS011;68178;52.188;5.598;2023-08-01T13:45:29;5.05;;;2.28;;
19137;SDS011;68178;52.188;5.598;2023-08-01T13:47:55;7.00;;;2.70;;
19137;SDS011;68178;52.188;5.598;2023-08-01T13:50:21;5.90;;;2.17;;
19137;SDS011;68178;52.188;5.598;2023-08-01T13:52:46;5.85;;;2.22;;
19137;SDS011;68178;52.188;5.598;2023-08-01T13:55:12;5.93;;;1.90;;
19137;SDS011;68178;52.188;5.598;2023-08-01T13:57:38;5.32;;;2.30;;
19137;SDS011;68178;52.188;5.598;2023-08-01T14:00:03;7.25;;;2.22;;
19137;SDS011;68178;52.188;5.598;2023-08-01T14:02:29;7.50;;;2.63;;
19137;SDS011;68178;52.188;5.598;2023-08-01T14:04:55;6.35;;;2.15;;
19137;SDS011;68178;52.188;5.598;2023-08-01T14:07:21;7.53;;;2.78;;
19137;SDS011;68178;52.188;5.598;2023-08-01T14:09:46;6.38;;;2.30;;
19137;SDS011;68178;52.188;5.598;2023-08-01T14:12:12;5.65;;;2.50;;
19137;SDS011;68178;52.188;5.598;2023-08-01T14:14:37;7.28;;;2.75;;
19137;SDS011;68178;52.188;5.598;2023-08-01T14:17:03;10.55;;;2.65;;
19137;SDS011;68178;52.188;5.598;2023-08-01T14:19:29;6.28;;;2.13;;
19137;SDS011;68178;52.188;5.598;2023-08-01T14:21:55;10.30;;;1.80;;
19137;SDS011;68178;52.188;5.598;2023-08-01T14:24:21;5.60;;;2.22;;
19137;SDS011;68178;52.188;5.598;2023-08-01T14:26:47;6.72;;;2.03;;
19137;SDS011;68178;52.188;5.598;2023-08-01T14:29:13;7.30;;;2.58;;
19137;SDS011;68178;52.188;5.598;2023-08-01T14:31:39;7.82;;;2.40;;
19137;SDS011;68178;52.188;5.598;2023-08-01T14:34:04;4.93;;;2.00;;
19137;SDS011;68178;52.188;5.598;2023-08-01T14:36:30;7.95;;;3.15;;
19137;SDS011;68178;52.188;5.598;2023-08-01T14:38:56;9.32;;;2.33;;